Time;durP1;ratioP1;P1;durP2;ratioP2;P2;SDS_P1;SDS_P2;PMS_P1;PMS_P2;Temp;Humidity;BMP_temperature;BMP_pressure;BME280_temperature;BME280_humidity;BME280_pressure;Samples;Min_cycle;Max_cycle;Signal;HPM_P1;HPM_P2
2022/05/20 00:00:53;;;;;;;;;;;12.50;99.90;;;;;;5019274;28;19931;-77
2022/05/20 00:03:19;;;;;;;;;;;12.40;99.90;;;;;;5035212;28;19925;-77
2022/05/20 00:05:45;;;;;;;;;;;12.40;99.90;;;;;;5035659;28;20304;-77
2022/05/20 00:08:11;;;;;;;;;;;12.30;99.90;;;;;;5052333;28;19940;-77
2022/05/20 00:10:36;;;;;;;;;;;12.30;99.90;;;;;;5035452;28;19936;-77
2022/05/20 00:13:02;;;;;;;;;;;12.30;99.90;;;;;;5035605;28;19925;-77
2022/05/20 00:15:28;;;;;;;;;;;12.20;99.90;;;;;;5035304;28;19925;-77
2022/05/20 00:17:55;;;;;;;;;;;12.20;99.90;;;;;;5052827;28;19921;-77
2022/05/20 00:20:21;;;;;;;;;;;12.10;99.90;;;;;;5035436;28;20440;-77
2022/05/20 00:22:47;;;;;;;;;;;12.00;99.90;;;;;;5052851;28;19928;-77
2022/05/20 00:27:58;;;;;;;;;;;12.00;99.90;;;;;;5045693;28;19974;-81
2022/05/20 00:30:24;;;;;;;;;;;12.00;99.90;;;;;;5032287;28;20316;-77
2022/05/20 00:32:49;;;;;;;;;;;12.00;99.90;;;;;;5035325;28;19947;-77
2022/05/20 00:35:15;;;;;;;;;;;12.00;99.90;;;;;;5018792;28;19948;-78
2022/05/20 00:37:40;;;;;;;;;;;12.00;99.90;;;;;;5051632;28;19925;-77
2022/05/20 00:40:07;;;;;;;;;;;12.00;99.90;;;;;;5033235;28;19929;-77
2022/05/20 00:42:34;;;;;;;;;;;12.00;99.90;;;;;;5050924;28;19986;-77
2022/05/20 00:44:59;;;;;;;;;;;12.00;99.90;;;;;;5018074;28;19928;-77
2022/05/20 00:47:25;;;;;;;;;;;11.90;99.90;;;;;;5049404;28;20028;-77
2022/05/20 00:49:53;;;;;;;;;;;12.00;99.90;;;;;;5033991;28;19929;-77
2022/05/20 00:52:20;;;;;;;;;;;12.00;99.90;;;;;;5052356;28;19924;-77
2022/05/20 00:54:47;;;;;;;;;;;12.10;99.90;;;;;;5049779;28;19932;-77
2022/05/20 00:57:32;;;;;;;;;;;12.10;99.90;;;;;;5050687;28;20292;-77
2022/05/20 01:00:01;;;;;;;;;;;12.10;99.90;;;;;;5033009;28;19925;-78
2022/05/20 01:02:27;;;;;;;;;;;12.10;99.90;;;;;;5050820;28;19987;-78
2022/05/20 01:04:55;;;;;;;;;;;12.20;99.90;;;;;;5034823;28;19950;-77
2022/05/20 01:07:22;;;;;;;;;;;12.20;99.90;;;;;;5052782;28;19925;-77
2022/05/20 01:09:48;;;;;;;;;;;12.20;99.90;;;;;;5033984;28;20272;-75
2022/05/20 01:12:13;;;;;;;;;;;12.20;99.90;;;;;;5034390;28;19925;-75
2022/05/20 01:14:39;;;;;;;;;;;12.10;99.90;;;;;;5051951;28;19935;-75
2022/05/20 01:17:06;;;;;;;;;;;12.10;99.90;;;;;;5052635;28;19924;-74
2022/05/20 01:19:36;;;;;;;;;;;12.10;99.90;;;;;;5051287;28;19964;-75
2022/05/20 01:22:06;;;;;;;;;;;12.10;99.90;;;;;;5033769;28;20415;-75
2022/05/20 01:24:32;;;;;;;;;;;12.10;99.90;;;;;;5052526;28;20384;-75
2022/05/20 01:26:57;;;;;;;;;;;12.00;99.90;;;;;;5026463;28;19939;-75
2022/05/20 01:29:24;;;;;;;;;;;12.10;99.90;;;;;;5034268;28;19924;-76
2022/05/20 01:31:49;;;;;;;;;;;12.00;99.90;;;;;;5051511;28;19941;-74
2022/05/20 01:34:15;;;;;;;;;;;12.00;99.90;;;;;;5052169;28;19931;-74
2022/05/20 01:36:40;;;;;;;;;;;12.00;99.90;;;;;;5033740;28;19932;-75
2022/05/20 01:39:06;;;;;;;;;;;11.90;99.90;;;;;;5034598;28;19968;-75
2022/05/20 01:41:36;;;;;;;;;;;12.00;99.90;;;;;;5051388;28;19925;-75
2022/05/20 01:44:05;;;;;;;;;;;11.90;99.90;;;;;;5052110;28;19925;-75
2022/05/20 01:46:32;;;;;;;;;;;11.90;99.90;;;;;;5004697;28;20335;-75
2022/05/20 01:49:13;;;;;;;;;;;11.80;99.90;;;;;;5052137;28;19932;-74
2022/05/20 01:51:43;;;;;;;;;;;11.80;99.90;;;;;;5028170;28;20266;-75
2022/05/20 01:54:16;;;;;;;;;;;11.80;99.90;;;;;;5026406;28;19925;-76
2022/05/20 01:56:46;;;;;;;;;;;11.80;99.90;;;;;;5051365;28;20007;-74
2022/05/20 01:59:22;;;;;;;;;;;11.80;99.90;;;;;;5018053;28;20035;-75
2022/05/20 02:01:51;;;;;;;;;;;11.70;99.90;;;;;;5051072;28;19964;-74
2022/05/20 02:04:20;;;;;;;;;;;11.80;99.90;;;;;;5034053;28;19986;-75
2022/05/20 02:06:49;;;;;;;;;;;11.80;99.90;;;;;;5033826;28;20024;-75
2022/05/20 02:09:44;;;;;;;;;;;11.80;99.90;;;;;;5034427;28;19924;-75
2022/05/20 02:12:14;;;;;;;;;;;11.80;99.90;;;;;;4961886;28;19927;-77
2022/05/20 02:14:58;;;;;;;;;;;11.80;99.90;;;;;;5037540;28;19928;-77
2022/05/20 02:17:35;;;;;;;;;;;11.80;99.90;;;;;;5023822;28;19952;-78
2022/05/20 02:20:04;;;;;;;;;;;11.90;99.90;;;;;;5036806;28;19967;-78
2022/05/20 02:22:33;;;;;;;;;;;11.80;99.90;;;;;;5037206;28;19925;-78
2022/05/20 02:25:00;;;;;;;;;;;11.80;99.90;;;;;;5055398;28;19936;-77
2022/05/20 02:27:28;;;;;;;;;;;11.80;99.90;;;;;;5038111;28;19925;-77
2022/05/20 02:30:12;;;;;;;;;;;11.70;99.90;;;;;;5037152;28;19978;-77
2022/05/20 02:32:38;;;;;;;;;;;11.70;99.90;;;;;;5037570;28;19925;-78
2022/05/20 02:35:03;;;;;;;;;;;11.70;99.90;;;;;;5050006;28;20288;-78
2022/05/20 02:37:30;;;;;;;;;;;11.70;99.90;;;;;;5051465;28;20333;-77
2022/05/20 02:39:56;;;;;;;;;;;11.60;99.90;;;;;;5037155;28;19990;-77
2022/05/20 02:42:22;;;;;;;;;;;11.60;99.90;;;;;;5037249;28;19924;-77
2022/05/20 02:44:48;;;;;;;;;;;11.60;99.90;;;;;;5037262;28;19928;-77
2022/05/20 02:47:14;;;;;;;;;;;11.60;99.90;;;;;;5054976;28;19972;-77
2022/05/20 02:49:39;;;;;;;;;;;11.60;99.90;;;;;;5053959;28;19995;-77
2022/05/20 02:52:05;;;;;;;;;;;11.50;99.90;;;;;;5053839;28;19925;-77
2022/05/20 02:54:31;;;;;;;;;;;11.50;99.90;;;;;;5037098;28;19928;-78
2022/05/20 02:56:57;;;;;;;;;;;11.40;99.90;;;;;;5032987;28;19928;-76
2022/05/20 03:04:51;;;;;;;;;;;11.30;99.90;;;;;;5039765;28;20407;-75
2022/05/20 03:07:16;;;;;;;;;;;11.30;99.90;;;;;;5037066;28;19928;-75
2022/05/20 03:09:42;;;;;;;;;;;11.30;99.90;;;;;;5054328;28;20369;-75
2022/05/20 03:12:08;;;;;;;;;;;11.30;99.90;;;;;;5054040;28;19925;-75
2022/05/20 03:14:34;;;;;;;;;;;11.30;99.90;;;;;;5037173;28;19924;-75
2022/05/20 03:17:00;;;;;;;;;;;11.30;99.90;;;;;;5003896;28;20011;-75
2022/05/20 03:19:30;;;;;;;;;;;11.30;99.90;;;;;;5020508;28;19975;-75
2022/05/20 03:22:03;;;;;;;;;;;11.30;99.90;;;;;;5036627;28;19974;-75
2022/05/20 03:24:29;;;;;;;;;;;11.30;99.90;;;;;;5044923;28;20387;-75
2022/05/20 03:26:54;;;;;;;;;;;11.20;99.90;;;;;;5053730;28;19940;-75
2022/05/20 03:29:20;;;;;;;;;;;11.10;99.90;;;;;;5036706;28;20007;-75
2022/05/20 03:31:46;;;;;;;;;;;11.00;99.90;;;;;;5036360;28;19924;-75
2022/05/20 03:34:12;;;;;;;;;;;11.00;99.90;;;;;;5035091;28;19971;-75
2022/05/20 03:36:39;;;;;;;;;;;11.00;99.90;;;;;;5035952;28;19960;-77
2022/05/20 03:39:06;;;;;;;;;;;11.00;99.90;;;;;;5053586;28;20034;-78
2022/05/20 03:41:32;;;;;;;;;;;11.00;99.90;;;;;;5054227;28;19929;-77
2022/05/20 03:43:58;;;;;;;;;;;10.90;99.90;;;;;;5053379;28;19929;-77
2022/05/20 03:46:23;;;;;;;;;;;11.00;99.90;;;;;;5054098;28;19924;-77
2022/05/20 03:48:49;;;;;;;;;;;11.00;99.90;;;;;;5052816;28;20016;-77
2022/05/20 03:51:15;;;;;;;;;;;11.10;99.90;;;;;;5035092;28;20301;-78
2022/05/20 03:53:40;;;;;;;;;;;11.10;99.90;;;;;;5035806;28;19947;-78
2022/05/20 03:56:06;;;;;;;;;;;11.10;99.90;;;;;;5053333;28;19925;-78
2022/05/20 03:58:32;;;;;;;;;;;11.00;99.90;;;;;;5035467;28;20353;-77
2022/05/20 04:03:43;;;;;;;;;;;11.10;99.90;;;;;;5037743;28;20007;-78
2022/05/20 04:06:09;;;;;;;;;;;11.10;99.90;;;;;;5035323;28;19960;-77
2022/05/20 04:08:34;;;;;;;;;;;11.30;99.90;;;;;;5019845;28;19967;-78
2022/05/20 04:11:00;;;;;;;;;;;11.20;99.90;;;;;;5037547;28;19924;-78
2022/05/20 04:13:26;;;;;;;;;;;11.20;99.90;;;;;;5036106;28;19932;-76
2022/05/20 04:15:54;;;;;;;;;;;11.20;99.90;;;;;;5021401;28;20028;-84
2022/05/20 04:18:20;;;;;;;;;;;11.20;99.90;;;;;;5053709;28;19925;-78
2022/05/20 04:20:46;;;;;;;;;;;11.10;99.90;;;;;;5035087;28;19924;-77
2022/05/20 04:23:11;;;;;;;;;;;11.20;99.90;;;;;;5034532;28;19999;-77
2022/05/20 04:25:37;;;;;;;;;;;11.10;99.90;;;;;;5019043;28;19978;-78
2022/05/20 04:28:03;;;;;;;;;;;11.20;99.90;;;;;;5035397;28;20011;-77
2022/05/20 04:30:28;;;;;;;;;;;11.20;99.90;;;;;;5035988;28;19925;-77
2022/05/20 04:32:54;;;;;;;;;;;11.20;99.90;;;;;;5035190;28;19933;-81
2022/05/20 04:35:19;;;;;;;;;;;11.20;99.90;;;;;;5052756;28;19932;-77
2022/05/20 04:37:45;;;;;;;;;;;11.20;99.90;;;;;;5043133;28;19968;-77
2022/05/20 04:40:11;;;;;;;;;;;11.10;99.90;;;;;;5010663;28;20443;-77
2022/05/20 04:48:06;;;;;;;;;;;11.10;99.90;;;;;;5025138;28;20382;-77
2022/05/20 04:50:31;;;;;;;;;;;11.10;99.90;;;;;;5023699;28;19980;-77
2022/05/20 04:52:57;;;;;;;;;;;11.10;99.90;;;;;;5034767;28;19929;-78
2022/05/20 04:55:22;;;;;;;;;;;11.20;99.90;;;;;;5052630;28;19971;-77
2022/05/20 04:57:49;;;;;;;;;;;11.20;99.90;;;;;;5052088;28;19925;-78
2022/05/20 05:00:15;;;;;;;;;;;11.20;99.90;;;;;;5035124;28;19928;-77
2022/05/20 05:02:41;;;;;;;;;;;11.30;99.90;;;;;;5053026;28;20025;-77
2022/05/20 05:05:09;;;;;;;;;;;11.30;99.90;;;;;;5028795;28;20384;-77
2022/05/20 05:07:42;;;;;;;;;;;11.30;99.90;;;;;;5026893;28;20017;-78
2022/05/20 05:10:09;;;;;;;;;;;11.40;99.90;;;;;;5034557;28;19929;-77
2022/05/20 05:12:34;;;;;;;;;;;11.50;99.90;;;;;;5035018;28;19929;-79
2022/05/20 05:15:00;;;;;;;;;;;11.60;99.90;;;;;;5051461;28;19994;-77
2022/05/20 05:20:12;;;;;;;;;;;11.70;99.90;;;;;;5032929;28;19932;-77
2022/05/20 05:22:38;;;;;;;;;;;11.70;99.90;;;;;;5031383;28;19925;-77
2022/05/20 05:25:04;;;;;;;;;;;11.80;99.90;;;;;;5027686;28;20412;-78
2022/05/20 05:27:29;;;;;;;;;;;11.80;99.90;;;;;;5029613;28;19925;-80
2022/05/20 05:29:55;;;;;;;;;;;11.90;99.90;;;;;;5035149;28;19925;-77
2022/05/20 05:32:20;;;;;;;;;;;12.00;99.90;;;;;;5018204;28;19924;-77
2022/05/20 05:34:46;;;;;;;;;;;12.00;99.90;;;;;;5047762;28;20312;-77
2022/05/20 05:37:12;;;;;;;;;;;12.00;99.90;;;;;;5033727;28;19925;-77
2022/05/20 05:39:37;;;;;;;;;;;12.10;99.90;;;;;;5024904;28;19925;-78
2022/05/20 05:42:04;;;;;;;;;;;12.20;99.90;;;;;;5034339;28;20304;-78
2022/05/20 05:44:29;;;;;;;;;;;12.20;99.90;;;;;;5018145;28;19925;-77
2022/05/20 05:46:55;;;;;;;;;;;12.30;99.90;;;;;;5036662;28;20015;-77
2022/05/20 05:49:21;;;;;;;;;;;12.30;99.90;;;;;;5022233;28;19932;-78
2022/05/20 05:51:47;;;;;;;;;;;12.40;99.90;;;;;;5034386;28;19924;-77
2022/05/20 05:54:12;;;;;;;;;;;12.50;99.90;;;;;;5021821;28;19925;-77
2022/05/20 05:56:38;;;;;;;;;;;12.50;99.90;;;;;;5019457;28;20441;-78
2022/05/20 05:59:04;;;;;;;;;;;12.60;99.90;;;;;;5055824;28;20371;-84
2022/05/20 06:01:29;;;;;;;;;;;12.70;99.90;;;;;;5038668;28;20008;-77
2022/05/20 06:03:55;;;;;;;;;;;12.80;99.90;;;;;;5055741;28;19952;-77
2022/05/20 06:06:20;;;;;;;;;;;12.90;99.90;;;;;;5037642;28;19932;-77
2022/05/20 06:08:46;;;;;;;;;;;13.00;99.90;;;;;;5021936;28;20009;-82
2022/05/20 06:11:12;;;;;;;;;;;13.10;99.90;;;;;;5036826;28;20029;-78
2022/05/20 06:13:37;;;;;;;;;;;13.30;99.90;;;;;;5037829;28;19936;-76
2022/05/20 06:16:03;;;;;;;;;;;13.30;99.90;;;;;;5055488;28;19925;-77
2022/05/20 06:18:29;;;;;;;;;;;13.50;99.90;;;;;;5021589;28;19960;-77
2022/05/20 06:20:55;;;;;;;;;;;13.60;99.90;;;;;;5037235;28;19925;-82
2022/05/20 06:23:20;;;;;;;;;;;13.80;99.90;;;;;;5036547;28;20368;-82
2022/05/20 06:25:46;;;;;;;;;;;13.80;99.90;;;;;;5037569;28;19925;-81
2022/05/20 06:28:13;;;;;;;;;;;13.90;99.90;;;;;;5037625;28;20372;-81
2022/05/20 06:30:40;;;;;;;;;;;14.00;99.90;;;;;;5035477;28;19931;-84
2022/05/20 06:33:06;;;;;;;;;;;14.00;99.90;;;;;;5034294;28;19925;-83
2022/05/20 06:41:01;;;;;;;;;;;14.30;99.90;;;;;;5037968;28;20293;-82
2022/05/20 06:43:27;;;;;;;;;;;14.40;99.90;;;;;;5020863;28;19928;-81
2022/05/20 06:45:57;;;;;;;;;;;14.50;99.90;;;;;;5037108;28;19931;-82
2022/05/20 06:48:24;;;;;;;;;;;14.50;99.90;;;;;;5037276;28;19925;-82
2022/05/20 06:50:50;;;;;;;;;;;14.50;99.90;;;;;;5037466;28;19928;-83
2022/05/20 06:53:15;;;;;;;;;;;14.60;99.90;;;;;;5036781;28;20281;-82
2022/05/20 06:55:41;;;;;;;;;;;14.60;99.90;;;;;;5004566;28;19975;-83
2022/05/20 06:58:07;;;;;;;;;;;14.70;99.90;;;;;;5036057;28;19936;-81
2022/05/20 07:00:33;;;;;;;;;;;14.60;99.90;;;;;;5036959;28;20424;-83
2022/05/20 07:02:59;;;;;;;;;;;14.70;99.90;;;;;;5035782;28;19975;-82
2022/05/20 07:05:27;;;;;;;;;;;14.80;99.90;;;;;;5036480;28;20021;-81
2022/05/20 07:07:52;;;;;;;;;;;14.90;99.90;;;;;;5036859;28;19925;-82
2022/05/20 07:10:18;;;;;;;;;;;15.00;99.90;;;;;;5019417;28;20309;-81
2022/05/20 07:12:43;;;;;;;;;;;15.10;99.90;;;;;;5035952;28;19925;-81
2022/05/20 07:15:09;;;;;;;;;;;15.20;99.90;;;;;;5036508;28;19925;-81
2022/05/20 07:17:36;;;;;;;;;;;15.30;99.90;;;;;;5036432;28;19925;-81
2022/05/20 07:20:02;;;;;;;;;;;15.40;99.90;;;;;;5020121;28;19929;-81
2022/05/20 07:22:28;;;;;;;;;;;15.40;99.90;;;;;;5019368;28;20082;-81
2022/05/20 07:24:55;;;;;;;;;;;15.50;99.90;;;;;;5036826;28;20409;-81
2022/05/20 07:27:21;;;;;;;;;;;15.60;99.90;;;;;;5020185;28;19948;-80
2022/05/20 07:29:46;;;;;;;;;;;15.60;99.90;;;;;;5020529;28;20360;-80
2022/05/20 07:32:12;;;;;;;;;;;15.60;99.90;;;;;;5035979;28;19937;-80
2022/05/20 07:34:38;;;;;;;;;;;15.70;99.90;;;;;;5035232;28;20011;-80
2022/05/20 07:37:03;;;;;;;;;;;15.80;99.90;;;;;;5019551;28;19924;-79
2022/05/20 07:39:29;;;;;;;;;;;15.90;99.90;;;;;;5036537;28;19971;-80
2022/05/20 07:41:55;;;;;;;;;;;15.90;99.90;;;;;;5036249;28;20012;-80
2022/05/20 07:44:21;;;;;;;;;;;16.10;99.90;;;;;;5037132;28;19936;-80
2022/05/20 07:46:46;;;;;;;;;;;16.30;99.90;;;;;;5034476;28;19929;-82
2022/05/20 07:49:12;;;;;;;;;;;16.40;99.90;;;;;;5036791;28;20391;-81
2022/05/20 07:51:39;;;;;;;;;;;16.30;99.90;;;;;;5028794;28;19979;-81
2022/05/20 07:54:10;;;;;;;;;;;16.30;99.90;;;;;;5030877;28;19947;-83
2022/05/20 07:56:39;;;;;;;;;;;16.20;99.90;;;;;;5028495;28;19936;-81
2022/05/20 07:59:07;;;;;;;;;;;16.30;99.90;;;;;;5031873;28;19936;-79
2022/05/20 08:01:34;;;;;;;;;;;16.30;99.90;;;;;;5052215;28;19925;-79
2022/05/20 08:07:02;;;;;;;;;;;16.40;99.90;;;;;;5028887;28;20407;-83
2022/05/20 08:09:27;;;;;;;;;;;16.50;99.90;;;;;;5032398;28;19929;-80
2022/05/20 08:11:53;;;;;;;;;;;16.50;99.90;;;;;;5017387;28;20008;-80
2022/05/20 08:14:19;;;;;;;;;;;16.50;99.90;;;;;;5033432;28;19946;-80
2022/05/20 08:16:44;;;;;;;;;;;16.40;99.90;;;;;;5035628;28;19924;-78
2022/05/20 08:19:10;;;;;;;;;;;16.50;99.90;;;;;;5035254;28;19947;-79
2022/05/20 08:21:36;;;;;;;;;;;16.50;99.90;;;;;;5035461;28;19935;-79
2022/05/20 08:24:02;;;;;;;;;;;16.60;99.90;;;;;;5033654;28;20413;-79
2022/05/20 08:26:27;;;;;;;;;;;16.60;99.90;;;;;;5030806;28;19928;-79
2022/05/20 08:28:53;;;;;;;;;;;16.70;99.90;;;;;;5052401;28;20385;-78
2022/05/20 08:31:18;;;;;;;;;;;16.80;99.90;;;;;;5034199;28;19924;-81
2022/05/20 08:33:44;;;;;;;;;;;16.90;99.90;;;;;;5035025;28;19929;-80
2022/05/20 08:36:10;;;;;;;;;;;16.80;99.90;;;;;;5017596;28;19925;-79
2022/05/20 08:38:36;;;;;;;;;;;16.90;99.90;;;;;;5026505;28;19924;-81
2022/05/20 08:41:02;;;;;;;;;;;16.80;99.90;;;;;;5033558;28;19943;-81
2022/05/20 08:43:32;;;;;;;;;;;16.90;99.90;;;;;;5034184;28;19929;-81
2022/05/20 08:45:58;;;;;;;;;;;16.90;99.90;;;;;;5034240;28;19930;-80
2022/05/20 08:48:24;;;;;;;;;;;17.00;99.90;;;;;;5033611;28;19928;-82
2022/05/20 08:50:51;;;;;;;;;;;17.00;99.90;;;;;;5034889;28;19991;-81
2022/05/20 08:53:35;;;;;;;;;;;17.10;99.90;;;;;;5035036;28;19929;-82
2022/05/20 08:56:14;;;;;;;;;;;17.20;99.90;;;;;;5053158;28;19933;-82
2022/05/20 08:58:46;;;;;;;;;;;17.30;99.90;;;;;;5049716;28;19928;-84
2022/05/20 09:01:12;;;;;;;;;;;17.40;99.90;;;;;;5033155;28;19925;-81
2022/05/20 09:03:38;;;;;;;;;;;17.40;99.90;;;;;;5034285;28;19991;-81
2022/05/20 09:06:09;;;;;;;;;;;17.60;99.90;;;;;;5033966;28;19947;-81
2022/05/20 09:08:34;;;;;;;;;;;17.70;99.90;;;;;;5032481;28;19925;-81
2022/05/20 09:11:02;;;;;;;;;;;17.70;99.90;;;;;;5018074;28;19925;-82
2022/05/20 09:16:23;;;;;;;;;;;17.70;99.90;;;;;;5033254;28;19925;-80
2022/05/20 09:19:04;;;;;;;;;;;17.90;99.90;;;;;;5034047;28;19983;-82
2022/05/20 09:21:33;;;;;;;;;;;17.90;99.90;;;;;;5034492;28;19982;-81
2022/05/20 09:24:01;;;;;;;;;;;17.80;99.90;;;;;;5038760;28;19979;-83
2022/05/20 09:26:37;;;;;;;;;;;17.90;99.90;;;;;;5021626;28;20357;-85
2022/05/20 09:29:16;;;;;;;;;;;18.00;99.90;;;;;;5022039;28;19970;-87
2022/05/20 09:31:48;;;;;;;;;;;18.10;99.90;;;;;;5021686;28;19991;-86
2022/05/20 09:34:13;;;;;;;;;;;18.10;99.90;;;;;;5029472;28;20020;-83
2022/05/20 09:36:39;;;;;;;;;;;18.20;99.90;;;;;;5035298;28;20020;-83
2022/05/20 09:39:09;;;;;;;;;;;18.20;99.90;;;;;;5020390;28;19987;-82
2022/05/20 09:41:43;;;;;;;;;;;18.30;99.90;;;;;;5037429;28;19924;-82
2022/05/20 09:44:10;;;;;;;;;;;18.20;99.90;;;;;;5038228;28;19925;-83
2022/05/20 09:46:40;;;;;;;;;;;18.10;99.90;;;;;;5037977;28;19925;-85
2022/05/20 09:49:11;;;;;;;;;;;18.30;99.90;;;;;;5021754;28;19929;-88
2022/05/20 09:51:40;;;;;;;;;;;18.30;99.90;;;;;;5036743;28;19929;-93
2022/05/20 09:54:12;;;;;;;;;;;18.30;99.90;;;;;;5023375;28;19929;-85
2022/05/20 09:56:43;;;;;;;;;;;18.40;99.90;;;;;;5038676;28;19935;-87
2022/05/20 09:59:13;;;;;;;;;;;18.30;99.90;;;;;;5057744;28;20003;-85
2022/05/20 10:01:40;;;;;;;;;;;18.20;99.90;;;;;;5038798;28;19925;-86
2022/05/20 10:04:08;;;;;;;;;;;18.20;99.90;;;;;;5022164;28;19925;-84
2022/05/20 10:06:39;;;;;;;;;;;18.20;99.90;;;;;;5037830;28;20400;-85
2022/05/20 10:09:11;;;;;;;;;;;18.20;99.90;;;;;;5038491;28;19925;-84
2022/05/20 10:11:49;;;;;;;;;;;18.30;99.90;;;;;;5054316;28;20002;-81
2022/05/20 10:14:17;;;;;;;;;;;18.30;99.90;;;;;;5037651;28;20271;-81
2022/05/20 10:16:52;;;;;;;;;;;18.30;99.90;;;;;;5037107;28;19925;-81
2022/05/20 10:19:26;;;;;;;;;;;18.30;99.90;;;;;;5015535;28;19944;-82
2022/05/20 10:22:03;;;;;;;;;;;18.20;99.90;;;;;;5031855;28;19931;-82
2022/05/20 10:24:48;;;;;;;;;;;18.20;99.90;;;;;;5043101;28;19936;-82
2022/05/20 10:27:13;;;;;;;;;;;18.20;99.90;;;;;;5029974;28;19925;-81
2022/05/20 10:32:59;;;;;;;;;;;18.20;99.90;;;;;;5008470;28;20427;-82
2022/05/20 10:35:30;;;;;;;;;;;18.20;99.90;;;;;;5036837;28;19924;-82
2022/05/20 10:38:05;;;;;;;;;;;18.20;99.90;;;;;;5036394;28;19925;-86
2022/05/20 10:40:49;;;;;;;;;;;18.30;99.90;;;;;;5037601;28;20383;-79
2022/05/20 10:48:34;;;;;;;;;;;18.30;99.90;;;;;;5034482;28;19952;-79
2022/05/20 10:49:17;;;;;;;;;;;18.40;99.90;;;;;;5037037;28;20026;-79
2022/05/20 10:51:50;;;;;;;;;;;18.40;99.90;;;;;;5015400;28;19925;-81
2022/05/20 10:54:21;;;;;;;;;;;18.40;99.90;;;;;;5052348;28;19925;-80
2022/05/20 10:56:55;;;;;;;;;;;18.20;99.90;;;;;;5019841;28;19936;-80
2022/05/20 10:59:36;;;;;;;;;;;18.20;99.90;;;;;;5032322;28;19944;-81
2022/05/20 11:02:21;;;;;;;;;;;18.20;99.90;;;;;;5036960;28;19925;-81
2022/05/20 11:04:59;;;;;;;;;;;18.20;99.90;;;;;;5036947;28;20002;-81
2022/05/20 11:07:30;;;;;;;;;;;18.20;99.90;;;;;;5020278;28;19933;-78
2022/05/20 11:09:56;;;;;;;;;;;18.10;99.90;;;;;;5037123;28;19925;-78
2022/05/20 11:12:34;;;;;;;;;;;18.20;99.90;;;;;;5037386;28;20407;-78
2022/05/20 11:15:03;;;;;;;;;;;18.20;99.90;;;;;;5036970;28;19955;-78
2022/05/20 11:17:49;;;;;;;;;;;18.20;99.90;;;;;;5054338;28;20335;-78
2022/05/20 11:20:24;;;;;;;;;;;18.30;99.90;;;;;;5037353;28;20380;-79
2022/05/20 11:23:00;;;;;;;;;;;18.40;99.90;;;;;;5037254;28;19925;-78
2022/05/20 11:25:38;;;;;;;;;;;18.50;99.90;;;;;;5054637;28;20012;-78
2022/05/20 11:28:04;;;;;;;;;;;18.60;99.90;;;;;;5036757;28;19925;-79
2022/05/20 11:30:43;;;;;;;;;;;18.70;99.90;;;;;;5020558;28;20035;-79
2022/05/20 11:33:27;;;;;;;;;;;18.60;99.90;;;;;;5054525;28;19925;-78
2022/05/20 11:35:59;;;;;;;;;;;18.70;99.90;;;;;;5036295;28;19925;-79
2022/05/20 11:38:27;;;;;;;;;;;18.60;99.90;;;;;;5036575;28;19951;-78
2022/05/20 11:40:53;;;;;;;;;;;18.70;99.90;;;;;;5054019;28;19925;-79
2022/05/20 11:43:25;;;;;;;;;;;18.70;99.90;;;;;;5031154;28;20388;-79
2022/05/20 11:45:59;;;;;;;;;;;18.70;99.90;;;;;;5009111;28;19932;-78
2022/05/20 11:48:36;;;;;;;;;;;18.80;99.90;;;;;;5051645;28;19931;-79
2022/05/20 11:51:11;;;;;;;;;;;19.00;99.90;;;;;;5042179;28;19952;-79
2022/05/20 11:53:42;;;;;;;;;;;19.10;99.90;;;;;;5016785;28;20309;-78
2022/05/20 11:56:16;;;;;;;;;;;19.20;99.90;;;;;;5036360;28;19974;-78
2022/05/20 11:58:46;;;;;;;;;;;19.20;99.90;;;;;;5051880;28;19985;-79
2022/05/20 12:01:12;;;;;;;;;;;19.30;99.90;;;;;;5056233;28;20269;-79
2022/05/20 12:06:24;;;;;;;;;;;19.40;99.90;;;;;;5040132;28;19931;-79
2022/05/20 12:08:52;;;;;;;;;;;19.30;99.90;;;;;;5036133;28;19920;-78
2022/05/20 12:11:19;;;;;;;;;;;19.30;99.90;;;;;;5053868;28;19928;-79
2022/05/20 12:13:57;;;;;;;;;;;19.40;99.90;;;;;;5036007;28;20233;-79
2022/05/20 12:16:22;;;;;;;;;;;19.50;99.90;;;;;;5035670;28;19928;-79
2022/05/20 12:24:32;;;;;;;;;;;19.40;99.90;;;;;;5035608;28;20369;-78
2022/05/20 12:26:58;;;;;;;;;;;19.30;99.90;;;;;;5053252;28;19947;-77
2022/05/20 12:29:39;;;;;;;;;;;19.20;99.90;;;;;;5055827;28;20008;-72
2022/05/20 12:32:24;;;;;;;;;;;19.10;99.90;;;;;;5019698;28;20078;-76
2022/05/20 12:35:04;;;;;;;;;;;19.00;99.90;;;;;;5032844;28;20035;-76
2022/05/20 12:37:42;;;;;;;;;;;18.90;99.90;;;;;;5033906;28;19925;-77
2022/05/20 12:40:26;;;;;;;;;;;18.90;99.90;;;;;;5033896;28;20335;-76
2022/05/20 12:42:55;;;;;;;;;;;18.70;99.90;;;;;;5033824;28;19925;-77
2022/05/20 12:45:23;;;;;;;;;;;18.70;99.90;;;;;;5046948;28;19931;-77
2022/05/20 12:47:48;;;;;;;;;;;18.60;99.90;;;;;;5044472;28;19931;-77
2022/05/20 12:50:14;;;;;;;;;;;18.60;99.90;;;;;;5029028;28;20310;-78
2022/05/20 12:52:59;;;;;;;;;;;18.60;99.90;;;;;;5027260;28;19928;-77
2022/05/20 12:55:39;;;;;;;;;;;18.60;99.90;;;;;;5033271;28;20357;-77
2022/05/20 12:58:08;;;;;;;;;;;18.60;99.90;;;;;;5032942;28;19940;-76
2022/05/20 13:00:54;;;;;;;;;;;18.60;99.90;;;;;;5051210;28;19948;-77
2022/05/20 13:03:26;;;;;;;;;;;18.50;99.90;;;;;;5016255;28;19925;-77
2022/05/20 13:05:53;;;;;;;;;;;18.40;99.90;;;;;;5031099;28;20435;-77
2022/05/20 13:08:20;;;;;;;;;;;18.40;99.90;;;;;;5044681;28;19929;-77
2022/05/20 13:10:46;;;;;;;;;;;18.30;99.90;;;;;;5047979;28;19933;-78
2022/05/20 13:13:20;;;;;;;;;;;18.30;99.90;;;;;;5028471;28;19929;-77
2022/05/20 13:15:47;;;;;;;;;;;18.20;99.90;;;;;;5027916;28;19974;-77
2022/05/20 13:18:23;;;;;;;;;;;18.20;99.90;;;;;;5048719;28;20038;-78
2022/05/20 13:20:59;;;;;;;;;;;18.20;99.90;;;;;;5027895;28;19978;-78
2022/05/20 13:23:30;;;;;;;;;;;18.10;99.90;;;;;;5046176;28;19925;-78
2022/05/20 13:25:55;;;;;;;;;;;18.10;99.90;;;;;;5051368;28;19925;-77
2022/05/20 13:28:25;;;;;;;;;;;18.00;99.90;;;;;;5033958;28;19925;-77
2022/05/20 13:30:58;;;;;;;;;;;17.90;99.90;;;;;;5051784;28;19925;-78
2022/05/20 13:33:24;;;;;;;;;;;17.90;99.90;;;;;;5033982;28;19950;-78
2022/05/20 13:35:51;;;;;;;;;;;17.90;99.90;;;;;;5033447;28;19925;-78
2022/05/20 13:38:16;;;;;;;;;;;17.90;99.90;;;;;;5032661;28;19932;-78
2022/05/20 13:40:43;;;;;;;;;;;17.90;99.90;;;;;;5033504;28;19924;-78
2022/05/20 13:43:10;;;;;;;;;;;17.80;99.90;;;;;;5032908;28;19944;-78
2022/05/20 13:51:07;;;;;;;;;;;17.40;99.90;;;;;;5026374;28;19925;-78
2022/05/20 13:53:34;;;;;;;;;;;17.30;99.90;;;;;;5043719;28;19925;-78
2022/05/20 13:56:00;;;;;;;;;;;17.20;99.90;;;;;;5024624;28;20353;-78
2022/05/20 13:58:26;;;;;;;;;;;17.20;99.90;;;;;;5042183;28;20011;-78
2022/05/20 14:00:51;;;;;;;;;;;17.20;99.90;;;;;;5042147;28;20019;-80
2022/05/20 14:03:37;;;;;;;;;;;17.10;99.90;;;;;;5025938;28;21229;-80
2022/05/20 14:06:13;;;;;;;;;;;17.10;99.90;;;;;;5028743;28;19932;-81
2022/05/20 14:08:42;;;;;;;;;;;17.00;99.90;;;;;;5014547;28;19929;-83
2022/05/20 14:11:13;;;;;;;;;;;16.80;99.90;;;;;;5021694;28;20348;-82
2022/05/20 14:13:39;;;;;;;;;;;16.80;99.90;;;;;;5033047;28;19983;-82
2022/05/20 14:16:11;;;;;;;;;;;16.70;99.90;;;;;;5017210;28;20047;-81
2022/05/20 14:18:41;;;;;;;;;;;16.70;99.90;;;;;;5035922;28;19924;-80
2022/05/20 14:21:16;;;;;;;;;;;16.70;99.90;;;;;;5017314;28;19925;-81
2022/05/20 14:23:46;;;;;;;;;;;16.80;99.90;;;;;;5036553;28;19929;-80
2022/05/20 14:26:18;;;;;;;;;;;16.80;99.90;;;;;;5034746;28;20016;-81
2022/05/20 14:28:45;;;;;;;;;;;16.80;99.90;;;;;;5033099;28;19929;-82
2022/05/20 14:31:17;;;;;;;;;;;16.80;99.90;;;;;;5036260;28;20385;-82
2022/05/20 14:33:45;;;;;;;;;;;16.80;99.90;;;;;;5036782;28;20323;-81
2022/05/20 14:36:11;;;;;;;;;;;16.80;99.90;;;;;;5019231;28;20365;-79
2022/05/20 14:38:43;;;;;;;;;;;16.70;99.90;;;;;;5036743;28;19925;-85
2022/05/20 14:41:12;;;;;;;;;;;16.60;99.90;;;;;;5035690;28;20406;-82
2022/05/20 14:43:48;;;;;;;;;;;16.50;99.90;;;;;;5016846;28;19924;-78
2022/05/20 14:47:14;;;;;;;;;;;16.40;99.90;;;;;;5019828;28;19970;-81
2022/05/20 14:49:05;;;;;;;;;;;16.20;99.90;;;;;;5036608;28;20024;-80
2022/05/20 14:51:31;;;;;;;;;;;16.00;99.90;;;;;;5035683;28;20011;-82
2022/05/20 14:54:01;;;;;;;;;;;15.80;99.90;;;;;;5035632;28;19939;-80
2022/05/20 14:56:34;;;;;;;;;;;15.80;99.90;;;;;;5037085;28;19925;-81
2022/05/20 14:59:00;;;;;;;;;;;15.80;99.90;;;;;;5017709;28;19925;-81
2022/05/20 15:01:30;;;;;;;;;;;15.80;99.90;;;;;;5017634;28;19921;-81
2022/05/20 15:03:55;;;;;;;;;;;15.80;99.90;;;;;;5018279;28;19974;-83
2022/05/20 15:06:26;;;;;;;;;;;15.70;99.90;;;;;;5035045;28;19924;-80
2022/05/20 15:08:52;;;;;;;;;;;15.70;99.90;;;;;;5032268;28;19932;-80
2022/05/20 15:11:23;;;;;;;;;;;15.60;99.90;;;;;;5037699;28;19929;-81
2022/05/20 15:13:49;;;;;;;;;;;15.50;99.90;;;;;;5028365;28;19924;-82
2022/05/20 15:16:15;;;;;;;;;;;15.50;99.90;;;;;;5028886;28;20010;-82